sensor_id;sensor_type;location;lat;lon;timestamp;P1;durP1;ratioP1;P2;durP2;ratioP2
67747;SDS011;54543;50.712;6.070;2024-02-14T00:00:11;3.35;;;1.80;;
67747;SDS011;54543;50.712;6.070;2024-02-14T00:02:43;2.10;;;1.40;;
67747;SDS011;54543;50.712;6.070;2024-02-14T00:05:09;2.53;;;1.40;;
67747;SDS011;54543;50.712;6.070;2024-02-14T00:07:36;2.42;;;1.40;;
67747;SDS011;54543;50.712;6.070;2024-02-14T00:10:03;3.13;;;1.40;;
67747;SDS011;54543;50.712;6.070;2024-02-14T00:12:31;1.90;;;1.35;;
67747;SDS011;54543;50.712;6.070;2024-02-14T00:15:03;3.00;;;1.38;;
67747;SDS011;54543;50.712;6.070;2024-02-14T00:17:31;2.10;;;1.33;;
67747;SDS011;54543;50.712;6.070;2024-02-14T00:19:57;2.75;;;1.60;;
67747;SDS011;54543;50.712;6.070;2024-02-14T00:22:23;2.78;;;1.20;;
67747;SDS011;54543;50.712;6.070;2024-02-14T00:24:50;1.80;;;1.10;;
67747;SDS011;54543;50.712;6.070;2024-02-14T00:27:15;2.50;;;1.48;;
67747;SDS011;54543;50.712;6.070;2024-02-14T00:29:42;2.13;;;1.50;;
67747;SDS011;54543;50.712;6.070;2024-02-14T00:32:10;1.60;;;1.30;;
67747;SDS011;54543;50.712;6.070;2024-02-14T00:34:36;3.63;;;1.50;;
67747;SDS011;54543;50.712;6.070;2024-02-14T00:37:02;2.72;;;1.63;;
67747;SDS011;54543;50.712;6.070;2024-02-14T00:39:28;1.33;;;1.02;;
67747;SDS011;54543;50.712;6.070;2024-02-14T00:41:54;2.92;;;1.40;;
67747;SDS011;54543;50.712;6.070;2024-02-14T00:44:21;2.15;;;1.60;;
67747;SDS011;54543;50.712;6.070;2024-02-14T00:46:46;2.60;;;1.67;;
67747;SDS011;54543;50.712;6.070;2024-02-14T00:49:13;1.80;;;1.20;;
67747;SDS011;54543;50.712;6.070;2024-02-14T00:51:41;1.40;;;0.98;;
67747;SDS011;54543;50.712;6.070;2024-02-14T00:54:06;1.40;;;1.10;;
67747;SDS011;54543;50.712;6.070;2024-02-14T00:56:33;1.92;;;1.20;;
67747;SDS011;54543;50.712;6.070;2024-02-14T00:58:59;2.75;;;1.30;;
67747;SDS011;54543;50.712;6.070;2024-02-14T01:01:24;2.20;;;1.15;;
67747;SDS011;54543;50.712;6.070;2024-02-14T01:03:50;2.33;;;1.40;;
67747;SDS011;54543;50.712;6.070;2024-02-14T01:06:16;2.45;;;1.23;;
67747;SDS011;54543;50.712;6.070;2024-02-14T01:08:43;1.70;;;1.25;;
67747;SDS011;54543;50.712;6.070;2024-02-14T01:11:09;1.80;;;1.10;;
67747;SDS011;54543;50.712;6.070;2024-02-14T01:13:35;1.83;;;1.02;;
67747;SDS011;54543;50.712;6.070;2024-02-14T01:16:02;1.38;;;1.20;;
67747;SDS011;54543;50.712;6.070;2024-02-14T01:18:29;2.67;;;1.30;;
67747;SDS011;54543;50.712;6.070;2024-02-14T01:20:55;1.33;;;1.00;;
67747;SDS011;54543;50.712;6.070;2024-02-14T01:23:21;1.60;;;1.00;;
67747;SDS011;54543;50.712;6.070;2024-02-14T01:25:46;1.63;;;1.00;;
67747;SDS011;54543;50.712;6.070;2024-02-14T01:28:12;3.90;;;1.30;;
67747;SDS011;54543;50.712;6.070;2024-02-14T01:30:38;1.20;;;1.10;;
67747;SDS011;54543;50.712;6.070;2024-02-14T01:33:04;1.85;;;1.10;;
67747;SDS011;54543;50.712;6.070;2024-02-14T01:35:31;1.23;;;1.00;;
67747;SDS011;54543;50.712;6.070;2024-02-14T01:37:56;1.77;;;1.20;;
67747;SDS011;54543;50.712;6.070;2024-02-14T01:40:22;1.10;;;0.98;;
67747;SDS011;54543;50.712;6.070;2024-02-14T01:42:48;1.90;;;1.20;;
67747;SDS011;54543;50.712;6.070;2024-02-14T01:45:14;2.38;;;1.33;;
67747;SDS011;54543;50.712;6.070;2024-02-14T01:47:40;2.00;;;1.30;;
67747;SDS011;54543;50.712;6.070;2024-02-14T01:50:07;2.28;;;1.13;;
67747;SDS011;54543;50.712;6.070;2024-02-14T01:52:34;1.42;;;1.30;;
67747;SDS011;54543;50.712;6.070;2024-02-14T01:55:02;1.70;;;1.10;;
67747;SDS011;54543;50.712;6.070;2024-02-14T01:57:30;1.65;;;1.20;;
67747;SDS011;54543;50.712;6.070;2024-02-14T01:59:56;2.63;;;1.33;;
67747;SDS011;54543;50.712;6.070;2024-02-14T02:02:24;1.98;;;1.23;;
67747;SDS011;54543;50.712;6.070;2024-02-14T02:04:51;1.70;;;1.38;;
67747;SDS011;54543;50.712;6.070;2024-02-14T02:07:17;2.03;;;1.25;;
67747;SDS011;54543;50.712;6.070;2024-02-14T02:09:45;1.55;;;1.23;;
67747;SDS011;54543;50.712;6.070;2024-02-14T02:12:11;1.80;;;1.40;;
67747;SDS011;54543;50.712;6.070;2024-02-14T02:14:36;1.10;;;1.00;;
67747;SDS011;54543;50.712;6.070;2024-02-14T02:17:02;3.60;;;1.20;;
67747;SDS011;54543;50.712;6.070;2024-02-14T02:19:32;1.48;;;0.95;;
67747;SDS011;54543;50.712;6.070;2024-02-14T02:21:59;1.75;;;1.10;;
67747;SDS011;54543;50.712;6.070;2024-02-14T02:24:25;4.00;;;1.38;;
67747;SDS011;54543;50.712;6.070;2024-02-14T02:26:51;2.38;;;1.30;;
67747;SDS011;54543;50.712;6.070;2024-02-14T02:29:16;1.80;;;1.23;;
67747;SDS011;54543;50.712;6.070;2024-02-14T02:31:44;2.75;;;1.20;;
67747;SDS011;54543;50.712;6.070;2024-02-14T02:34:11;1.95;;;1.45;;
67747;SDS011;54543;50.712;6.070;2024-02-14T02:36:37;2.08;;;1.40;;
67747;SDS011;54543;50.712;6.070;2024-02-14T02:39:04;3.13;;;1.58;;
67747;SDS011;54543;50.712;6.070;2024-02-14T02:41:33;2.50;;;1.60;;
67747;SDS011;54543;50.712;6.070;2024-02-14T02:43:58;1.80;;;1.30;;
67747;SDS011;54543;50.712;6.070;2024-02-14T02:46:24;2.08;;;1.40;;
67747;SDS011;54543;50.712;6.070;2024-02-14T02:48:51;4.05;;;1.70;;
67747;SDS011;54543;50.712;6.070;2024-02-14T02:51:20;2.53;;;1.73;;
67747;SDS011;54543;50.712;6.070;2024-02-14T02:53:46;2.72;;;1.50;;
67747;SDS011;54543;50.712;6.070;2024-02-14T02:56:12;3.08;;;1.83;;
67747;SDS011;54543;50.712;6.070;2024-02-14T02:58:40;2.67;;;1.60;;
67747;SDS011;54543;50.712;6.070;2024-02-14T03:01:08;3.10;;;1.90;;
67747;SDS011;54543;50.712;6.070;2024-02-14T03:03:42;3.30;;;1.70;;
67747;SDS011;54543;50.712;6.070;2024-02-14T03:06:08;2.08;;;1.48;;
67747;SDS011;54543;50.712;6.070;2024-02-14T03:08:34;3.45;;;1.88;;
67747;SDS011;54543;50.712;6.070;2024-02-14T03:11:05;3.25;;;1.67;;
67747;SDS011;54543;50.712;6.070;2024-02-14T03:13:31;3.70;;;1.60;;
67747;SDS011;54543;50.712;6.070;2024-02-14T03:15:57;2.72;;;1.67;;
67747;SDS011;54543;50.712;6.070;2024-02-14T03:18:24;2.72;;;1.77;;
67747;SDS011;54543;50.712;6.070;2024-02-14T03:20:50;3.03;;;1.98;;
67747;SDS011;54543;50.712;6.070;2024-02-14T03:23:16;3.15;;;1.90;;
67747;SDS011;54543;50.712;6.070;2024-02-14T03:25:41;2.38;;;1.55;;
67747;SDS011;54543;50.712;6.070;2024-02-14T03:28:07;2.58;;;1.85;;
67747;SDS011;54543;50.712;6.070;2024-02-14T03:30:34;2.60;;;1.73;;
67747;SDS011;54543;50.712;6.070;2024-02-14T03:33:00;2.10;;;1.50;;
67747;SDS011;54543;50.712;6.070;2024-02-14T03:35:27;3.28;;;1.60;;
67747;SDS011;54543;50.712;6.070;2024-02-14T03:37:53;1.98;;;1.60;;
67747;SDS011;54543;50.712;6.070;2024-02-14T03:40:19;2.97;;;1.60;;
67747;SDS011;54543;50.712;6.070;2024-02-14T03:42:47;2.05;;;1.40;;
67747;SDS011;54543;50.712;6.070;2024-02-14T03:45:14;3.65;;;1.85;;
67747;SDS011;54543;50.712;6.070;2024-02-14T03:47:39;3.67;;;1.80;;
67747;SDS011;54543;50.712;6.070;2024-02-14T03:50:06;2.40;;;1.50;;
67747;SDS011;54543;50.712;6.070;2024-02-14T03:52:35;2.72;;;1.73;;
67747;SDS011;54543;50.712;6.070;2024-02-14T03:55:01;2.83;;;1.65;;
67747;SDS011;54543;50.712;6.070;2024-02-14T03:57:27;2.13;;;1.30;;
67747;SDS011;54543;50.712;6.070;2024-02-14T03:59:54;2.17;;;1.70;;
67747;SDS011;54543;50.712;6.070;2024-02-14T04:02:21;3.00;;;1.90;;
67747;SDS011;54543;50.712;6.070;2024-02-14T04:04:48;2.83;;;1.48;;
67747;SDS011;54543;50.712;6.070;2024-02-14T04:07:14;2.30;;;1.63;;
67747;SDS011;54543;50.712;6.070;2024-02-14T04:09:40;3.10;;;1.70;;
67747;SDS011;54543;50.712;6.070;2024-02-14T04:12:05;2.03;;;1.52;;
67747;SDS011;54543;50.712;6.070;2024-02-14T04:14:32;2.22;;;1.70;;
67747;SDS011;54543;50.712;6.070;2024-02-14T04:16:58;4.10;;;1.70;;
67747;SDS011;54543;50.712;6.070;2024-02-14T04:19:23;2.55;;;1.98;;
67747;SDS011;54543;50.712;6.070;2024-02-14T04:21:49;2.25;;;1.50;;
67747;SDS011;54543;50.712;6.070;2024-02-14T04:24:16;3.40;;;1.70;;
67747;SDS011;54543;50.712;6.070;2024-02-14T04:26:42;3.63;;;1.75;;
67747;SDS011;54543;50.712;6.070;2024-02-14T04:29:07;2.85;;;1.73;;
67747;SDS011;54543;50.712;6.070;2024-02-14T04:31:34;2.17;;;1.42;;
67747;SDS011;54543;50.712;6.070;2024-02-14T04:34:00;3.28;;;1.88;;
67747;SDS011;54543;50.712;6.070;2024-02-14T04:36:25;2.05;;;1.60;;
67747;SDS011;54543;50.712;6.070;2024-02-14T04:38:51;2.72;;;1.80;;
67747;SDS011;54543;50.712;6.070;2024-02-14T04:41:18;6.72;;;2.50;;
67747;SDS011;54543;50.712;6.070;2024-02-14T04:43:43;3.92;;;2.00;;
67747;SDS011;54543;50.712;6.070;2024-02-14T04:46:10;2.55;;;1.90;;
67747;SDS011;54543;50.712;6.070;2024-02-14T04:48:36;3.08;;;1.77;;
67747;SDS011;54543;50.712;6.070;2024-02-14T04:51:04;3.10;;;1.90;;
67747;SDS011;54543;50.712;6.070;2024-02-14T04:53:30;2.85;;;1.63;;
67747;SDS011;54543;50.712;6.070;2024-02-14T04:55:56;2.45;;;1.67;;
67747;SDS011;54543;50.712;6.070;2024-02-14T04:58:22;4.05;;;2.28;;
67747;SDS011;54543;50.712;6.070;2024-02-14T05:00:48;4.30;;;1.40;;
67747;SDS011;54543;50.712;6.070;2024-02-14T05:03:14;2.00;;;1.70;;
67747;SDS011;54543;50.712;6.070;2024-02-14T05:05:41;2.58;;;1.70;;
67747;SDS011;54543;50.712;6.070;2024-02-14T05:08:07;3.47;;;1.90;;
67747;SDS011;54543;50.712;6.070;2024-02-14T05:10:32;3.40;;;1.75;;
67747;SDS011;54543;50.712;6.070;2024-02-14T05:12:58;2.25;;;1.52;;
67747;SDS011;54543;50.712;6.070;2024-02-14T05:15:24;3.15;;;1.90;;
67747;SDS011;54543;50.712;6.070;2024-02-14T05:17:51;3.63;;;1.70;;
67747;SDS011;54543;50.712;6.070;2024-02-14T05:20:17;3.47;;;1.73;;
67747;SDS011;54543;50.712;6.070;2024-02-14T05:22:42;2.20;;;1.60;;
67747;SDS011;54543;50.712;6.070;2024-02-14T05:25:08;2.53;;;1.90;;
67747;SDS011;54543;50.712;6.070;2024-02-14T05:27:38;3.88;;;2.03;;
67747;SDS011;54543;50.712;6.070;2024-02-14T05:30:04;3.15;;;1.90;;
67747;SDS011;54543;50.712;6.070;2024-02-14T05:32:31;3.55;;;1.83;;
67747;SDS011;54543;50.712;6.070;2024-02-14T05:34:59;2.72;;;1.95;;
67747;SDS011;54543;50.712;6.070;2024-02-14T05:37:24;3.60;;;2.20;;
67747;SDS011;54543;50.712;6.070;2024-02-14T05:39:53;3.25;;;2.00;;
67747;SDS011;54543;50.712;6.070;2024-02-14T05:42:19;3.22;;;2.10;;
67747;SDS011;54543;50.712;6.070;2024-02-14T05:44:45;3.15;;;2.13;;
67747;SDS011;54543;50.712;6.070;2024-02-14T05:47:10;3.33;;;1.92;;
67747;SDS011;54543;50.712;6.070;2024-02-14T05:49:40;7.68;;;4.28;;
67747;SDS011;54543;50.712;6.070;2024-02-14T05:52:06;3.75;;;2.20;;
67747;SDS011;54543;50.712;6.070;2024-02-14T05:54:33;3.38;;;2.10;;
67747;SDS011;54543;50.712;6.070;2024-02-14T05:56:59;4.30;;;2.53;;
67747;SDS011;54543;50.712;6.070;2024-02-14T05:59:24;5.43;;;2.83;;
67747;SDS011;54543;50.712;6.070;2024-02-14T06:01:50;4.65;;;2.78;;
67747;SDS011;54543;50.712;6.070;2024-02-14T06:04:16;4.47;;;2.88;;
67747;SDS011;54543;50.712;6.070;2024-02-14T06:06:42;42.10;;;25.92;;
67747;SDS011;54543;50.712;6.070;2024-02-14T06:09:08;20.90;;;12.75;;
67747;SDS011;54543;50.712;6.070;2024-02-14T06:11:36;14.18;;;8.57;;
67747;SDS011;54543;50.712;6.070;2024-02-14T06:14:07;9.23;;;5.80;;
67747;SDS011;54543;50.712;6.070;2024-02-14T06:16:34;41.05;;;12.77;;
67747;SDS011;54543;50.712;6.070;2024-02-14T06:19:00;58.38;;;17.58;;
67747;SDS011;54543;50.712;6.070;2024-02-14T06:21:26;21.67;;;8.82;;
67747;SDS011;54543;50.712;6.070;2024-02-14T06:23:52;37.08;;;11.98;;
67747;SDS011;54543;50.712;6.070;2024-02-14T06:26:18;40.15;;;17.38;;
67747;SDS011;54543;50.712;6.070;2024-02-14T06:28:44;36.33;;;13.90;;
67747;SDS011;54543;50.712;6.070;2024-02-14T06:31:10;33.63;;;17.30;;
67747;SDS011;54543;50.712;6.070;2024-02-14T06:33:36;23.42;;;10.95;;
67747;SDS011;54543;50.712;6.070;2024-02-14T06:36:01;30.67;;;13.63;;
67747;SDS011;54543;50.712;6.070;2024-02-14T06:38:28;31.48;;;12.48;;
67747;SDS011;54543;50.712;6.070;2024-02-14T06:40:55;24.40;;;11.95;;
67747;SDS011;54543;50.712;6.070;2024-02-14T06:43:21;18.63;;;10.18;;
67747;SDS011;54543;50.712;6.070;2024-02-14T06:45:47;14.05;;;8.57;;
67747;SDS011;54543;50.712;6.070;2024-02-14T06:48:13;23.23;;;9.50;;
67747;SDS011;54543;50.712;6.070;2024-02-14T06:50:38;12.55;;;7.93;;
67747;SDS011;54543;50.712;6.070;2024-02-14T06:53:04;20.85;;;11.98;;
67747;SDS011;54543;50.712;6.070;2024-02-14T06:55:29;70.00;;;34.90;;
67747;SDS011;54543;50.712;6.070;2024-02-14T06:57:57;52.53;;;29.40;;
67747;SDS011;54543;50.712;6.070;2024-02-14T07:00:23;29.42;;;19.35;;
67747;SDS011;54543;50.712;6.070;2024-02-14T07:02:49;24.40;;;14.52;;
67747;SDS011;54543;50.712;6.070;2024-02-14T07:05:14;16.58;;;10.05;;
67747;SDS011;54543;50.712;6.070;2024-02-14T07:07:40;10.95;;;7.40;;
67747;SDS011;54543;50.712;6.070;2024-02-14T07:10:07;11.18;;;7.40;;
67747;SDS011;54543;50.712;6.070;2024-02-14T07:12:33;18.27;;;9.52;;
67747;SDS011;54543;50.712;6.070;2024-02-14T07:14:58;15.00;;;9.52;;
67747;SDS011;54543;50.712;6.070;2024-02-14T07:17:24;18.05;;;10.98;;
67747;SDS011;54543;50.712;6.070;2024-02-14T07:19:50;9.23;;;6.10;;
67747;SDS011;54543;50.712;6.070;2024-02-14T07:22:15;9.70;;;5.93;;
67747;SDS011;54543;50.712;6.070;2024-02-14T07:24:44;10.85;;;6.45;;
67747;SDS011;54543;50.712;6.070;2024-02-14T07:27:11;9.32;;;5.47;;
67747;SDS011;54543;50.712;6.070;2024-02-14T07:29:37;12.32;;;9.45;;
67747;SDS011;54543;50.712;6.070;2024-02-14T07:32:03;14.40;;;12.30;;
67747;SDS011;54543;50.712;6.070;2024-02-14T07:34:29;10.73;;;9.55;;
67747;SDS011;54543;50.712;6.070;2024-02-14T07:36:55;11.93;;;9.30;;
67747;SDS011;54543;50.712;6.070;2024-02-14T07:39:20;12.00;;;8.98;;
67747;SDS011;54543;50.712;6.070;2024-02-14T07:41:46;10.88;;;7.35;;
67747;SDS011;54543;50.712;6.070;2024-02-14T07:44:12;8.02;;;5.50;;
67747;SDS011;54543;50.712;6.070;2024-02-14T07:46:38;13.88;;;8.80;;
67747;SDS011;54543;50.712;6.070;2024-02-14T07:49:04;12.35;;;7.35;;
67747;SDS011;54543;50.712;6.070;2024-02-14T07:51:30;7.35;;;5.15;;
67747;SDS011;54543;50.712;6.070;2024-02-14T07:54:02;12.13;;;7.18;;
67747;SDS011;54543;50.712;6.070;2024-02-14T07:56:29;7.15;;;4.45;;
67747;SDS011;54543;50.712;6.070;2024-02-14T07:58:54;5.50;;;4.03;;
67747;SDS011;54543;50.712;6.070;2024-02-14T08:01:20;6.57;;;4.30;;
67747;SDS011;54543;50.712;6.070;2024-02-14T08:03:45;6.70;;;4.72;;
67747;SDS011;54543;50.712;6.070;2024-02-14T08:06:11;5.93;;;3.40;;
67747;SDS011;54543;50.712;6.070;2024-02-14T08:08:37;4.70;;;3.15;;
67747;SDS011;54543;50.712;6.070;2024-02-14T08:11:03;7.90;;;4.95;;
67747;SDS011;54543;50.712;6.070;2024-02-14T08:13:28;10.25;;;6.68;;
67747;SDS011;54543;50.712;6.070;2024-02-14T08:15:54;7.10;;;4.60;;
67747;SDS011;54543;50.712;6.070;2024-02-14T08:18:19;6.55;;;3.28;;
67747;SDS011;54543;50.712;6.070;2024-02-14T08:20:45;6.10;;;3.10;;
67747;SDS011;54543;50.712;6.070;2024-02-14T08:23:11;12.05;;;6.25;;
67747;SDS011;54543;50.712;6.070;2024-02-14T08:25:36;7.15;;;4.50;;
67747;SDS011;54543;50.712;6.070;2024-02-14T08:28:02;6.10;;;3.78;;
67747;SDS011;54543;50.712;6.070;2024-02-14T08:30:27;7.65;;;4.20;;
67747;SDS011;54543;50.712;6.070;2024-02-14T08:32:53;6.13;;;4.18;;
67747;SDS011;54543;50.712;6.070;2024-02-14T08:35:19;6.10;;;3.85;;
67747;SDS011;54543;50.712;6.070;2024-02-14T08:37:46;5.13;;;2.95;;
67747;SDS011;54543;50.712;6.070;2024-02-14T08:40:12;7.72;;;4.80;;
67747;SDS011;54543;50.712;6.070;2024-02-14T08:42:37;5.35;;;2.70;;
67747;SDS011;54543;50.712;6.070;2024-02-14T08:45:04;5.03;;;2.83;;
67747;SDS011;54543;50.712;6.070;2024-02-14T08:47:30;7.88;;;3.67;;
67747;SDS011;54543;50.712;6.070;2024-02-14T08:49:55;6.70;;;3.78;;
67747;SDS011;54543;50.712;6.070;2024-02-14T08:52:21;6.90;;;3.90;;
67747;SDS011;54543;50.712;6.070;2024-02-14T08:54:46;4.95;;;2.92;;
67747;SDS011;54543;50.712;6.070;2024-02-14T08:57:12;4.82;;;2.60;;
67747;SDS011;54543;50.712;6.070;2024-02-14T08:59:38;6.28;;;2.58;;
67747;SDS011;54543;50.712;6.070;2024-02-14T09:02:03;5.88;;;2.33;;
67747;SDS011;54543;50.712;6.070;2024-02-14T09:04:29;8.10;;;3.67;;
67747;SDS011;54543;50.712;6.070;2024-02-14T09:06:56;6.53;;;3.80;;
67747;SDS011;54543;50.712;6.070;2024-02-14T09:09:21;5.70;;;3.20;;
67747;SDS011;54543;50.712;6.070;2024-02-14T09:11:47;6.00;;;3.88;;
67747;SDS011;54543;50.712;6.070;2024-02-14T09:14:12;5.55;;;3.63;;
67747;SDS011;54543;50.712;6.070;2024-02-14T09:16:38;5.22;;;3.30;;
67747;SDS011;54543;50.712;6.070;2024-02-14T09:19:04;8.52;;;5.07;;
67747;SDS011;54543;50.712;6.070;2024-02-14T09:21:32;5.95;;;3.47;;
67747;SDS011;54543;50.712;6.070;2024-02-14T09:24:00;6.78;;;3.47;;
67747;SDS011;54543;50.712;6.070;2024-02-14T09:26:26;3.95;;;2.22;;
67747;SDS011;54543;50.712;6.070;2024-02-14T09:28:52;4.68;;;3.15;;
67747;SDS011;54543;50.712;6.070;2024-02-14T09:31:18;6.13;;;3.67;;
67747;SDS011;54543;50.712;6.070;2024-02-14T09:33:46;7.13;;;2.97;;
67747;SDS011;54543;50.712;6.070;2024-02-14T09:36:13;4.63;;;2.45;;
67747;SDS011;54543;50.712;6.070;2024-02-14T09:38:39;4.20;;;2.45;;
67747;SDS011;54543;50.712;6.070;2024-02-14T09:41:08;3.15;;;2.03;;
67747;SDS011;54543;50.712;6.070;2024-02-14T09:44:01;3.58;;;1.83;;
67747;SDS011;54543;50.712;6.070;2024-02-14T09:46:27;4.45;;;2.50;;
67747;SDS011;54543;50.712;6.070;2024-02-14T09:48:55;6.72;;;2.97;;
67747;SDS011;54543;50.712;6.070;2024-02-14T09:51:24;4.72;;;2.20;;
67747;SDS011;54543;50.712;6.070;2024-02-14T09:53:50;4.18;;;2.30;;
67747;SDS011;54543;50.712;6.070;2024-02-14T09:56:18;3.13;;;1.70;;
67747;SDS011;54543;50.712;6.070;2024-02-14T09:58:47;4.25;;;2.08;;
67747;SDS011;54543;50.712;6.070;2024-02-14T10:01:20;5.00;;;2.42;;
67747;SDS011;54543;50.712;6.070;2024-02-14T10:03:49;4.80;;;2.85;;
67747;SDS011;54543;50.712;6.070;2024-02-14T10:06:18;3.92;;;2.30;;
67747;SDS011;54543;50.712;6.070;2024-02-14T10:08:50;3.85;;;2.13;;
67747;SDS011;54543;50.712;6.070;2024-02-14T10:11:16;7.20;;;2.83;;
67747;SDS011;54543;50.712;6.070;2024-02-14T10:13:48;4.53;;;2.35;;
67747;SDS011;54543;50.712;6.070;2024-02-14T10:16:16;6.75;;;3.65;;
67747;SDS011;54543;50.712;6.070;2024-02-14T10:18:44;6.25;;;4.07;;
67747;SDS011;54543;50.712;6.070;2024-02-14T10:21:19;6.13;;;3.67;;
67747;SDS011;54543;50.712;6.070;2024-02-14T10:23:45;6.70;;;3.60;;
67747;SDS011;54543;50.712;6.070;2024-02-14T10:26:12;4.50;;;2.50;;
67747;SDS011;54543;50.712;6.070;2024-02-14T10:28:45;4.93;;;2.08;;
67747;SDS011;54543;50.712;6.070;2024-02-14T10:31:11;6.15;;;2.55;;
67747;SDS011;54543;50.712;6.070;2024-02-14T10:33:38;4.70;;;2.40;;
67747;SDS011;54543;50.712;6.070;2024-02-14T10:36:05;3.95;;;2.35;;
67747;SDS011;54543;50.712;6.070;2024-02-14T10:38:33;3.47;;;2.13;;
67747;SDS011;54543;50.712;6.070;2024-02-14T10:40:59;3.20;;;1.95;;
67747;SDS011;54543;50.712;6.070;2024-02-14T10:43:26;3.50;;;2.13;;
67747;SDS011;54543;50.712;6.070;2024-02-14T10:45:55;4.53;;;2.53;;
67747;SDS011;54543;50.712;6.070;2024-02-14T10:48:23;5.32;;;3.08;;
67747;SDS011;54543;50.712;6.070;2024-02-14T10:50:52;5.63;;;2.33;;
67747;SDS011;54543;50.712;6.070;2024-02-14T10:53:20;10.50;;;4.18;;
67747;SDS011;54543;50.712;6.070;2024-02-14T10:55:47;9.40;;;4.28;;
67747;SDS011;54543;50.712;6.070;2024-02-14T10:58:14;7.63;;;3.38;;
67747;SDS011;54543;50.712;6.070;2024-02-14T11:00:41;5.88;;;2.72;;
67747;SDS011;54543;50.712;6.070;2024-02-14T11:03:08;5.78;;;3.08;;
67747;SDS011;54543;50.712;6.070;2024-02-14T11:05:44;4.47;;;2.40;;
67747;SDS011;54543;50.712;6.070;2024-02-14T11:08:14;4.05;;;2.45;;
67747;SDS011;54543;50.712;6.070;2024-02-14T11:10:40;5.93;;;3.15;;
67747;SDS011;54543;50.712;6.070;2024-02-14T11:13:09;7.40;;;3.53;;
67747;SDS011;54543;50.712;6.070;2024-02-14T11:15:39;8.48;;;4.07;;
67747;SDS011;54543;50.712;6.070;2024-02-14T11:18:06;4.57;;;2.70;;
67747;SDS011;54543;50.712;6.070;2024-02-14T11:20:35;5.03;;;2.47;;
67747;SDS011;54543;50.712;6.070;2024-02-14T11:23:07;4.00;;;2.20;;
67747;SDS011;54543;50.712;6.070;2024-02-14T11:25:36;4.85;;;2.50;;
67747;SDS011;54543;50.712;6.070;2024-02-14T11:30:51;3.88;;;2.60;;
67747;SDS011;54543;50.712;6.070;2024-02-14T11:33:23;3.38;;;1.90;;
67747;SDS011;54543;50.712;6.070;2024-02-14T11:35:50;3.78;;;2.28;;
67747;SDS011;54543;50.712;6.070;2024-02-14T11:38:18;4.30;;;2.40;;
67747;SDS011;54543;50.712;6.070;2024-02-14T11:40:47;4.15;;;2.30;;
67747;SDS011;54543;50.712;6.070;2024-02-14T11:43:14;5.80;;;2.53;;
67747;SDS011;54543;50.712;6.070;2024-02-14T11:45:45;3.90;;;2.25;;
67747;SDS011;54543;50.712;6.070;2024-02-14T11:48:11;3.03;;;2.00;;
67747;SDS011;54543;50.712;6.070;2024-02-14T11:50:41;4.18;;;2.35;;
67747;SDS011;54543;50.712;6.070;2024-02-14T11:53:11;3.45;;;1.75;;
67747;SDS011;54543;50.712;6.070;2024-02-14T11:55:37;4.47;;;2.30;;
67747;SDS011;54543;50.712;6.070;2024-02-14T11:58:12;3.55;;;2.05;;
67747;SDS011;54543;50.712;6.070;2024-02-14T12:00:42;2.75;;;1.70;;
67747;SDS011;54543;50.712;6.070;2024-02-14T12:03:33;2.20;;;1.63;;
67747;SDS011;54543;50.712;6.070;2024-02-14T12:08:23;5.28;;;2.10;;
67747;SDS011;54543;50.712;6.070;2024-02-14T12:10:49;3.83;;;2.00;;
67747;SDS011;54543;50.712;6.070;2024-02-14T12:13:15;4.25;;;2.78;;
67747;SDS011;54543;50.712;6.070;2024-02-14T12:15:45;5.30;;;2.60;;
67747;SDS011;54543;50.712;6.070;2024-02-14T12:18:12;4.57;;;2.63;;
67747;SDS011;54543;50.712;6.070;2024-02-14T12:20:41;3.33;;;2.10;;
67747;SDS011;54543;50.712;6.070;2024-02-14T12:23:08;2.80;;;1.77;;
67747;SDS011;54543;50.712;6.070;2024-02-14T12:25:40;2.83;;;1.58;;
67747;SDS011;54543;50.712;6.070;2024-02-14T12:28:05;2.45;;;1.48;;
67747;SDS011;54543;50.712;6.070;2024-02-14T12:30:44;3.53;;;1.60;;
67747;SDS011;54543;50.712;6.070;2024-02-14T12:33:15;3.78;;;2.33;;
67747;SDS011;54543;50.712;6.070;2024-02-14T12:35:46;5.47;;;2.50;;
67747;SDS011;54543;50.712;6.070;2024-02-14T12:38:13;3.83;;;1.98;;
67747;SDS011;54543;50.712;6.070;2024-02-14T12:40:40;4.68;;;2.65;;
67747;SDS011;54543;50.712;6.070;2024-02-14T12:43:07;2.53;;;1.63;;
67747;SDS011;54543;50.712;6.070;2024-02-14T12:45:33;3.30;;;1.80;;
67747;SDS011;54543;50.712;6.070;2024-02-14T12:47:59;3.88;;;1.90;;
67747;SDS011;54543;50.712;6.070;2024-02-14T12:50:24;3.33;;;2.00;;
67747;SDS011;54543;50.712;6.070;2024-02-14T12:52:50;3.30;;;1.90;;
67747;SDS011;54543;50.712;6.070;2024-02-14T12:55:16;3.50;;;1.70;;
67747;SDS011;54543;50.712;6.070;2024-02-14T12:57:43;3.22;;;1.85;;
67747;SDS011;54543;50.712;6.070;2024-02-14T13:00:08;2.92;;;1.70;;
67747;SDS011;54543;50.712;6.070;2024-02-14T13:02:37;2.83;;;1.65;;
67747;SDS011;54543;50.712;6.070;2024-02-14T13:05:05;2.97;;;1.70;;
67747;SDS011;54543;50.712;6.070;2024-02-14T13:07:32;3.15;;;2.00;;
67747;SDS011;54543;50.712;6.070;2024-02-14T13:09:59;1.90;;;0.93;;
67747;SDS011;54543;50.712;6.070;2024-02-14T13:12:25;1.60;;;0.75;;
67747;SDS011;54543;50.712;6.070;2024-02-14T13:14:51;0.95;;;0.70;;
67747;SDS011;54543;50.712;6.070;2024-02-14T13:17:17;2.13;;;1.25;;
67747;SDS011;54543;50.712;6.070;2024-02-14T13:19:42;1.63;;;1.10;;
67747;SDS011;54543;50.712;6.070;2024-02-14T13:22:08;2.20;;;1.15;;
67747;SDS011;54543;50.712;6.070;2024-02-14T13:24:34;1.38;;;1.02;;
67747;SDS011;54543;50.712;6.070;2024-02-14T13:26:59;1.15;;;0.93;;
67747;SDS011;54543;50.712;6.070;2024-02-14T13:29:25;4.05;;;2.67;;
67747;SDS011;54543;50.712;6.070;2024-02-14T13:31:51;3.97;;;2.42;;
67747;SDS011;54543;50.712;6.070;2024-02-14T13:34:17;4.57;;;2.72;;
67747;SDS011;54543;50.712;6.070;2024-02-14T13:36:44;3.90;;;2.38;;
67747;SDS011;54543;50.712;6.070;2024-02-14T13:39:12;4.45;;;3.00;;
67747;SDS011;54543;50.712;6.070;2024-02-14T13:41:39;5.65;;;2.67;;
67747;SDS011;54543;50.712;6.070;2024-02-14T13:44:08;3.38;;;3.00;;
67747;SDS011;54543;50.712;6.070;2024-02-14T13:46:34;2.40;;;2.05;;
67747;SDS011;54543;50.712;6.070;2024-02-14T13:49:00;3.90;;;2.17;;
67747;SDS011;54543;50.712;6.070;2024-02-14T13:51:25;2.20;;;1.63;;
67747;SDS011;54543;50.712;6.070;2024-02-14T13:53:52;3.72;;;2.42;;
67747;SDS011;54543;50.712;6.070;2024-02-14T13:56:18;10.07;;;7.90;;
67747;SDS011;54543;50.712;6.070;2024-02-14T13:58:46;5.90;;;3.97;;
67747;SDS011;54543;50.712;6.070;2024-02-14T14:01:14;9.35;;;5.95;;
67747;SDS011;54543;50.712;6.070;2024-02-14T14:03:40;8.60;;;5.72;;
67747;SDS011;54543;50.712;6.070;2024-02-14T14:06:06;8.40;;;6.07;;
67747;SDS011;54543;50.712;6.070;2024-02-14T14:08:36;7.95;;;5.43;;
67747;SDS011;54543;50.712;6.070;2024-02-14T14:11:04;5.93;;;4.32;;
67747;SDS011;54543;50.712;6.070;2024-02-14T14:13:30;6.30;;;4.57;;
67747;SDS011;54543;50.712;6.070;2024-02-14T14:15:58;5.35;;;4.35;;
67747;SDS011;54543;50.712;6.070;2024-02-14T14:18:26;8.40;;;6.38;;
67747;SDS011;54543;50.712;6.070;2024-02-14T14:20:52;7.97;;;5.38;;
67747;SDS011;54543;50.712;6.070;2024-02-14T14:23:18;5.40;;;3.67;;
67747;SDS011;54543;50.712;6.070;2024-02-14T14:25:43;4.03;;;2.53;;
67747;SDS011;54543;50.712;6.070;2024-02-14T14:28:09;3.90;;;2.75;;
67747;SDS011;54543;50.712;6.070;2024-02-14T14:30:35;3.80;;;2.38;;
67747;SDS011;54543;50.712;6.070;2024-02-14T14:33:01;3.38;;;2.33;;
67747;SDS011;54543;50.712;6.070;2024-02-14T14:35:28;4.35;;;2.97;;
67747;SDS011;54543;50.712;6.070;2024-02-14T14:37:56;3.83;;;2.58;;
67747;SDS011;54543;50.712;6.070;2024-02-14T14:40:22;4.22;;;2.83;;
67747;SDS011;54543;50.712;6.070;2024-02-14T14:42:47;4.38;;;3.20;;
67747;SDS011;54543;50.712;6.070;2024-02-14T14:45:13;4.50;;;2.60;;
67747;SDS011;54543;50.712;6.070;2024-02-14T14:47:38;3.78;;;3.25;;